sensor_id;sensor_type;location;lat;lon;timestamp;P1;durP1;ratioP1;P2;durP2;ratioP2
36629;SDS011;36256;42.154;23.002;2023-04-25T00:02:13;6.67;;;4.20;;
36629;SDS011;36256;42.154;23.002;2023-04-25T00:04:40;5.10;;;4.40;;
36629;SDS011;36256;42.154;23.002;2023-04-25T00:07:07;6.30;;;4.40;;
36629;SDS011;36256;42.154;23.002;2023-04-25T00:09:34;4.85;;;4.35;;
36629;SDS011;36256;42.154;23.002;2023-04-25T00:12:00;5.28;;;4.65;;
36629;SDS011;36256;42.154;23.002;2023-04-25T00:14:28;6.22;;;4.65;;
36629;SDS011;36256;42.154;23.002;2023-04-25T00:16:55;5.00;;;4.35;;
36629;SDS011;36256;42.154;23.002;2023-04-25T00:19:22;12.85;;;4.78;;
36629;SDS011;36256;42.154;23.002;2023-04-25T00:21:49;5.03;;;4.23;;
36629;SDS011;36256;42.154;23.002;2023-04-25T00:24:16;5.15;;;4.53;;
36629;SDS011;36256;42.154;23.002;2023-04-25T00:26:42;7.22;;;4.50;;
36629;SDS011;36256;42.154;23.002;2023-04-25T00:29:09;5.28;;;4.55;;
36629;SDS011;36256;42.154;23.002;2023-04-25T00:31:36;4.70;;;4.03;;
36629;SDS011;36256;42.154;23.002;2023-04-25T00:34:02;5.32;;;4.65;;
36629;SDS011;36256;42.154;23.002;2023-04-25T00:36:29;7.18;;;4.78;;
36629;SDS011;36256;42.154;23.002;2023-04-25T00:38:56;7.18;;;4.20;;
36629;SDS011;36256;42.154;23.002;2023-04-25T00:41:23;5.13;;;4.57;;
36629;SDS011;36256;42.154;23.002;2023-04-25T00:43:52;5.32;;;4.72;;
36629;SDS011;36256;42.154;23.002;2023-04-25T00:46:20;5.25;;;4.60;;
36629;SDS011;36256;42.154;23.002;2023-04-25T00:48:46;6.68;;;4.55;;
36629;SDS011;36256;42.154;23.002;2023-04-25T00:51:14;5.45;;;4.32;;
36629;SDS011;36256;42.154;23.002;2023-04-25T00:53:47;5.65;;;4.60;;
36629;SDS011;36256;42.154;23.002;2023-04-25T00:56:16;5.13;;;4.60;;
36629;SDS011;36256;42.154;23.002;2023-04-25T00:58:43;5.80;;;4.43;;
36629;SDS011;36256;42.154;23.002;2023-04-25T01:01:10;5.93;;;4.82;;
36629;SDS011;36256;42.154;23.002;2023-04-25T01:03:38;7.13;;;5.30;;
36629;SDS011;36256;42.154;23.002;2023-04-25T01:06:10;6.75;;;5.53;;
36629;SDS011;36256;42.154;23.002;2023-04-25T01:08:37;8.15;;;6.10;;
36629;SDS011;36256;42.154;23.002;2023-04-25T01:11:05;6.00;;;5.32;;
36629;SDS011;36256;42.154;23.002;2023-04-25T01:13:32;6.88;;;5.50;;
36629;SDS011;36256;42.154;23.002;2023-04-25T01:16:00;6.75;;;5.63;;
36629;SDS011;36256;42.154;23.002;2023-04-25T01:18:28;8.40;;;6.00;;
36629;SDS011;36256;42.154;23.002;2023-04-25T01:20:54;7.38;;;6.07;;
36629;SDS011;36256;42.154;23.002;2023-04-25T01:23:22;7.40;;;5.90;;
36629;SDS011;36256;42.154;23.002;2023-04-25T01:28:16;9.25;;;6.40;;
36629;SDS011;36256;42.154;23.002;2023-04-25T01:30:43;7.80;;;6.63;;
36629;SDS011;36256;42.154;23.002;2023-04-25T01:33:09;7.13;;;6.15;;
36629;SDS011;36256;42.154;23.002;2023-04-25T01:35:37;7.88;;;6.28;;
36629;SDS011;36256;42.154;23.002;2023-04-25T01:38:04;10.23;;;7.15;;
36629;SDS011;36256;42.154;23.002;2023-04-25T01:40:31;10.38;;;6.63;;
36629;SDS011;36256;42.154;23.002;2023-04-25T01:42:59;8.07;;;6.30;;
36629;SDS011;36256;42.154;23.002;2023-04-25T01:45:26;8.03;;;7.03;;
36629;SDS011;36256;42.154;23.002;2023-04-25T01:47:52;12.53;;;8.20;;
36629;SDS011;36256;42.154;23.002;2023-04-25T01:50:19;11.02;;;8.23;;
36629;SDS011;36256;42.154;23.002;2023-04-25T01:52:46;10.05;;;6.90;;
36629;SDS011;36256;42.154;23.002;2023-04-25T01:55:13;7.03;;;6.15;;
36629;SDS011;36256;42.154;23.002;2023-04-25T01:57:39;11.10;;;5.93;;
36629;SDS011;36256;42.154;23.002;2023-04-25T02:00:06;8.52;;;6.38;;
36629;SDS011;36256;42.154;23.002;2023-04-25T02:02:35;7.80;;;6.32;;
36629;SDS011;36256;42.154;23.002;2023-04-25T02:05:02;7.78;;;6.53;;
36629;SDS011;36256;42.154;23.002;2023-04-25T02:07:29;7.47;;;6.35;;
36629;SDS011;36256;42.154;23.002;2023-04-25T02:09:56;8.18;;;6.28;;
36629;SDS011;36256;42.154;23.002;2023-04-25T02:12:22;13.20;;;6.10;;
36629;SDS011;36256;42.154;23.002;2023-04-25T02:14:49;12.20;;;6.90;;
36629;SDS011;36256;42.154;23.002;2023-04-25T02:17:16;9.27;;;6.97;;
36629;SDS011;36256;42.154;23.002;2023-04-25T02:19:43;8.77;;;6.63;;
36629;SDS011;36256;42.154;23.002;2023-04-25T02:22:09;9.18;;;6.90;;
36629;SDS011;36256;42.154;23.002;2023-04-25T02:24:36;7.75;;;6.90;;
36629;SDS011;36256;42.154;23.002;2023-04-25T02:27:03;9.30;;;6.38;;
36629;SDS011;36256;42.154;23.002;2023-04-25T02:29:30;7.65;;;5.47;;
36629;SDS011;36256;42.154;23.002;2023-04-25T02:31:56;7.03;;;5.68;;
36629;SDS011;36256;42.154;23.002;2023-04-25T02:34:23;6.55;;;5.15;;
36629;SDS011;36256;42.154;23.002;2023-04-25T02:36:49;6.90;;;5.15;;
36629;SDS011;36256;42.154;23.002;2023-04-25T02:39:19;5.57;;;4.85;;
36629;SDS011;36256;42.154;23.002;2023-04-25T02:41:45;5.82;;;5.10;;
36629;SDS011;36256;42.154;23.002;2023-04-25T02:44:12;7.87;;;5.43;;
36629;SDS011;36256;42.154;23.002;2023-04-25T02:46:38;7.30;;;6.00;;
36629;SDS011;36256;42.154;23.002;2023-04-25T02:49:06;9.07;;;6.32;;
36629;SDS011;36256;42.154;23.002;2023-04-25T02:53:59;8.27;;;5.78;;
36629;SDS011;36256;42.154;23.002;2023-04-25T02:56:26;6.93;;;6.20;;
36629;SDS011;36256;42.154;23.002;2023-04-25T02:58:53;9.23;;;6.20;;
36629;SDS011;36256;42.154;23.002;2023-04-25T03:01:20;7.72;;;6.60;;
36629;SDS011;36256;42.154;23.002;2023-04-25T03:03:47;7.63;;;6.22;;
36629;SDS011;36256;42.154;23.002;2023-04-25T03:11:09;7.90;;;6.40;;
36629;SDS011;36256;42.154;23.002;2023-04-25T03:16:03;8.60;;;6.88;;
36629;SDS011;36256;42.154;23.002;2023-04-25T03:18:30;7.22;;;5.85;;
36629;SDS011;36256;42.154;23.002;2023-04-25T03:20:57;9.57;;;5.72;;
36629;SDS011;36256;42.154;23.002;2023-04-25T03:23:23;6.35;;;5.47;;
36629;SDS011;36256;42.154;23.002;2023-04-25T03:25:50;7.57;;;6.43;;
36629;SDS011;36256;42.154;23.002;2023-04-25T03:28:17;7.80;;;6.37;;
36629;SDS011;36256;42.154;23.002;2023-04-25T03:33:10;8.98;;;5.40;;
36629;SDS011;36256;42.154;23.002;2023-04-25T03:35:37;6.55;;;5.07;;
36629;SDS011;36256;42.154;23.002;2023-04-25T03:38:04;7.20;;;6.18;;
36629;SDS011;36256;42.154;23.002;2023-04-25T03:40:30;8.68;;;6.72;;
36629;SDS011;36256;42.154;23.002;2023-04-25T03:42:57;11.05;;;6.72;;
36629;SDS011;36256;42.154;23.002;2023-04-25T03:45:23;9.23;;;6.50;;
36629;SDS011;36256;42.154;23.002;2023-04-25T03:47:51;7.85;;;6.60;;
36629;SDS011;36256;42.154;23.002;2023-04-25T03:50:17;8.40;;;6.40;;
36629;SDS011;36256;42.154;23.002;2023-04-25T03:52:44;8.45;;;7.00;;
36629;SDS011;36256;42.154;23.002;2023-04-25T03:55:10;9.15;;;7.28;;
36629;SDS011;36256;42.154;23.002;2023-04-25T03:57:37;9.27;;;7.50;;
36629;SDS011;36256;42.154;23.002;2023-04-25T04:00:04;10.85;;;8.20;;
36629;SDS011;36256;42.154;23.002;2023-04-25T04:02:32;8.82;;;7.25;;
36629;SDS011;36256;42.154;23.002;2023-04-25T04:05:01;10.90;;;7.25;;
36629;SDS011;36256;42.154;23.002;2023-04-25T04:07:28;9.75;;;7.18;;
36629;SDS011;36256;42.154;23.002;2023-04-25T04:09:54;11.00;;;7.13;;
36629;SDS011;36256;42.154;23.002;2023-04-25T04:12:21;8.50;;;6.78;;
36629;SDS011;36256;42.154;23.002;2023-04-25T04:14:47;8.43;;;6.97;;
36629;SDS011;36256;42.154;23.002;2023-04-25T04:17:14;7.13;;;6.20;;
36629;SDS011;36256;42.154;23.002;2023-04-25T04:19:41;11.33;;;6.60;;
36629;SDS011;36256;42.154;23.002;2023-04-25T04:22:07;8.98;;;6.13;;
36629;SDS011;36256;42.154;23.002;2023-04-25T04:24:34;8.93;;;6.67;;
36629;SDS011;36256;42.154;23.002;2023-04-25T04:27:00;6.82;;;5.95;;
36629;SDS011;36256;42.154;23.002;2023-04-25T04:29:27;7.47;;;6.13;;
36629;SDS011;36256;42.154;23.002;2023-04-25T04:31:53;9.73;;;7.43;;
36629;SDS011;36256;42.154;23.002;2023-04-25T04:34:20;11.52;;;6.80;;
36629;SDS011;36256;42.154;23.002;2023-04-25T04:36:47;8.30;;;6.30;;
36629;SDS011;36256;42.154;23.002;2023-04-25T04:39:14;6.60;;;5.90;;
36629;SDS011;36256;42.154;23.002;2023-04-25T04:41:40;6.70;;;5.47;;
36629;SDS011;36256;42.154;23.002;2023-04-25T04:44:07;6.87;;;5.63;;
36629;SDS011;36256;42.154;23.002;2023-04-25T04:46:35;7.63;;;6.45;;
36629;SDS011;36256;42.154;23.002;2023-04-25T04:49:09;13.20;;;9.52;;
36629;SDS011;36256;42.154;23.002;2023-04-25T04:51:35;9.35;;;7.30;;
36629;SDS011;36256;42.154;23.002;2023-04-25T04:54:03;8.50;;;6.82;;
36629;SDS011;36256;42.154;23.002;2023-04-25T04:56:30;7.70;;;6.32;;
36629;SDS011;36256;42.154;23.002;2023-04-25T04:58:58;8.52;;;6.53;;
36629;SDS011;36256;42.154;23.002;2023-04-25T05:01:25;8.15;;;6.20;;
36629;SDS011;36256;42.154;23.002;2023-04-25T05:03:52;9.95;;;5.80;;
36629;SDS011;36256;42.154;23.002;2023-04-25T05:06:20;7.95;;;5.70;;
36629;SDS011;36256;42.154;23.002;2023-04-25T05:08:47;7.10;;;5.60;;
36629;SDS011;36256;42.154;23.002;2023-04-25T05:11:14;6.35;;;5.45;;
36629;SDS011;36256;42.154;23.002;2023-04-25T05:13:40;7.07;;;5.82;;
36629;SDS011;36256;42.154;23.002;2023-04-25T05:16:07;7.63;;;5.80;;
36629;SDS011;36256;42.154;23.002;2023-04-25T05:18:34;7.45;;;5.65;;
36629;SDS011;36256;42.154;23.002;2023-04-25T05:21:00;8.30;;;5.63;;
36629;SDS011;36256;42.154;23.002;2023-04-25T05:23:27;5.25;;;4.63;;
36629;SDS011;36256;42.154;23.002;2023-04-25T05:25:54;5.03;;;4.53;;
36629;SDS011;36256;42.154;23.002;2023-04-25T05:28:21;4.95;;;4.45;;
36629;SDS011;36256;42.154;23.002;2023-04-25T05:30:48;6.28;;;4.43;;
36629;SDS011;36256;42.154;23.002;2023-04-25T05:33:15;4.88;;;4.05;;
36629;SDS011;36256;42.154;23.002;2023-04-25T05:38:09;4.40;;;3.70;;
36629;SDS011;36256;42.154;23.002;2023-04-25T05:40:35;5.05;;;4.20;;
36629;SDS011;36256;42.154;23.002;2023-04-25T05:43:02;5.78;;;4.35;;
36629;SDS011;36256;42.154;23.002;2023-04-25T05:45:29;6.68;;;5.00;;
36629;SDS011;36256;42.154;23.002;2023-04-25T05:47:56;7.83;;;5.60;;
36629;SDS011;36256;42.154;23.002;2023-04-25T05:50:22;5.03;;;4.13;;
36629;SDS011;36256;42.154;23.002;2023-04-25T05:52:49;6.25;;;4.78;;
36629;SDS011;36256;42.154;23.002;2023-04-25T05:55:16;7.32;;;4.45;;
36629;SDS011;36256;42.154;23.002;2023-04-25T05:57:43;4.00;;;3.60;;
36629;SDS011;36256;42.154;23.002;2023-04-25T06:00:12;4.80;;;3.70;;
36629;SDS011;36256;42.154;23.002;2023-04-25T06:02:41;3.72;;;3.35;;
36629;SDS011;36256;42.154;23.002;2023-04-25T06:07:35;7.18;;;3.40;;
36629;SDS011;36256;42.154;23.002;2023-04-25T06:10:02;3.97;;;3.47;;
36629;SDS011;36256;42.154;23.002;2023-04-25T06:12:32;4.47;;;3.60;;
36629;SDS011;36256;42.154;23.002;2023-04-25T06:14:59;5.25;;;4.03;;
36629;SDS011;36256;42.154;23.002;2023-04-25T06:17:27;6.90;;;3.70;;
36629;SDS011;36256;42.154;23.002;2023-04-25T06:19:54;4.13;;;3.53;;
36629;SDS011;36256;42.154;23.002;2023-04-25T06:22:21;10.48;;;3.88;;
36629;SDS011;36256;42.154;23.002;2023-04-25T06:24:47;4.35;;;3.50;;
36629;SDS011;36256;42.154;23.002;2023-04-25T06:27:14;3.72;;;3.25;;
36629;SDS011;36256;42.154;23.002;2023-04-25T06:29:42;5.47;;;3.70;;
36629;SDS011;36256;42.154;23.002;2023-04-25T06:32:08;4.37;;;3.43;;
36629;SDS011;36256;42.154;23.002;2023-04-25T06:34:35;4.68;;;3.60;;
36629;SDS011;36256;42.154;23.002;2023-04-25T06:37:02;4.53;;;3.30;;
36629;SDS011;36256;42.154;23.002;2023-04-25T06:39:28;8.57;;;3.90;;
36629;SDS011;36256;42.154;23.002;2023-04-25T06:41:55;12.63;;;6.57;;
36629;SDS011;36256;42.154;23.002;2023-04-25T06:44:22;4.90;;;3.60;;
36629;SDS011;36256;42.154;23.002;2023-04-25T06:46:50;6.13;;;5.03;;
36629;SDS011;36256;42.154;23.002;2023-04-25T06:49:17;6.05;;;3.03;;
36629;SDS011;36256;42.154;23.002;2023-04-25T06:51:43;6.72;;;3.55;;
36629;SDS011;36256;42.154;23.002;2023-04-25T06:54:10;6.57;;;3.28;;
36629;SDS011;36256;42.154;23.002;2023-04-25T06:56:36;4.90;;;3.22;;
36629;SDS011;36256;42.154;23.002;2023-04-25T06:59:03;4.10;;;3.70;;
36629;SDS011;36256;42.154;23.002;2023-04-25T07:01:29;3.65;;;3.22;;
36629;SDS011;36256;42.154;23.002;2023-04-25T07:03:57;3.45;;;2.90;;
36629;SDS011;36256;42.154;23.002;2023-04-25T07:06:24;5.30;;;3.28;;
36629;SDS011;36256;42.154;23.002;2023-04-25T07:08:52;5.72;;;4.18;;
36629;SDS011;36256;42.154;23.002;2023-04-25T07:11:18;11.60;;;3.63;;
36629;SDS011;36256;42.154;23.002;2023-04-25T07:13:45;4.53;;;3.15;;
36629;SDS011;36256;42.154;23.002;2023-04-25T07:16:12;3.13;;;2.55;;
36629;SDS011;36256;42.154;23.002;2023-04-25T07:18:39;3.15;;;2.60;;
36629;SDS011;36256;42.154;23.002;2023-04-25T07:21:05;3.45;;;2.03;;
36629;SDS011;36256;42.154;23.002;2023-04-25T07:23:32;2.63;;;2.10;;
36629;SDS011;36256;42.154;23.002;2023-04-25T07:25:59;4.95;;;2.20;;
36629;SDS011;36256;42.154;23.002;2023-04-25T07:28:25;2.78;;;1.90;;
36629;SDS011;36256;42.154;23.002;2023-04-25T07:30:52;2.40;;;1.90;;
36629;SDS011;36256;42.154;23.002;2023-04-25T07:33:18;4.78;;;2.15;;
36629;SDS011;36256;42.154;23.002;2023-04-25T07:35:46;2.42;;;1.60;;
36629;SDS011;36256;42.154;23.002;2023-04-25T07:38:13;3.58;;;1.92;;
36629;SDS011;36256;42.154;23.002;2023-04-25T07:40:40;2.67;;;1.53;;
36629;SDS011;36256;42.154;23.002;2023-04-25T07:43:06;1.70;;;1.60;;
36629;SDS011;36256;42.154;23.002;2023-04-25T07:45:33;5.18;;;2.00;;
36629;SDS011;36256;42.154;23.002;2023-04-25T07:48:00;2.53;;;1.83;;
36629;SDS011;36256;42.154;23.002;2023-04-25T07:50:27;4.60;;;1.90;;
36629;SDS011;36256;42.154;23.002;2023-04-25T07:52:53;3.53;;;1.80;;
36629;SDS011;36256;42.154;23.002;2023-04-25T07:55:20;2.70;;;1.83;;
36629;SDS011;36256;42.154;23.002;2023-04-25T07:57:46;2.88;;;1.70;;
36629;SDS011;36256;42.154;23.002;2023-04-25T08:00:13;2.33;;;1.85;;
36629;SDS011;36256;42.154;23.002;2023-04-25T08:02:41;2.60;;;1.85;;
36629;SDS011;36256;42.154;23.002;2023-04-25T08:05:08;2.10;;;1.33;;
36629;SDS011;36256;42.154;23.002;2023-04-25T08:07:38;3.15;;;1.77;;
36629;SDS011;36256;42.154;23.002;2023-04-25T08:10:08;6.95;;;3.35;;
36629;SDS011;36256;42.154;23.002;2023-04-25T08:12:34;2.50;;;2.20;;
36629;SDS011;36256;42.154;23.002;2023-04-25T08:15:01;4.65;;;2.70;;
36629;SDS011;36256;42.154;23.002;2023-04-25T08:17:28;2.78;;;2.13;;
36629;SDS011;36256;42.154;23.002;2023-04-25T08:19:54;3.00;;;2.53;;
36629;SDS011;36256;42.154;23.002;2023-04-25T08:22:21;4.32;;;2.22;;
36629;SDS011;36256;42.154;23.002;2023-04-25T08:24:48;4.20;;;2.30;;
36629;SDS011;36256;42.154;23.002;2023-04-25T08:27:15;5.35;;;3.30;;
36629;SDS011;36256;42.154;23.002;2023-04-25T08:29:41;5.35;;;2.88;;
36629;SDS011;36256;42.154;23.002;2023-04-25T08:32:08;2.83;;;2.13;;
36629;SDS011;36256;42.154;23.002;2023-04-25T08:34:35;6.90;;;4.78;;
36629;SDS011;36256;42.154;23.002;2023-04-25T08:37:03;5.22;;;3.50;;
36629;SDS011;36256;42.154;23.002;2023-04-25T08:39:30;2.92;;;2.50;;
36629;SDS011;36256;42.154;23.002;2023-04-25T08:41:57;6.15;;;3.30;;
36629;SDS011;36256;42.154;23.002;2023-04-25T08:44:24;4.10;;;1.83;;
36629;SDS011;36256;42.154;23.002;2023-04-25T08:46:51;1.90;;;1.75;;
36629;SDS011;36256;42.154;23.002;2023-04-25T08:49:18;2.33;;;1.92;;
36629;SDS011;36256;42.154;23.002;2023-04-25T08:51:46;4.10;;;1.98;;
36629;SDS011;36256;42.154;23.002;2023-04-25T08:54:14;2.97;;;1.90;;
36629;SDS011;36256;42.154;23.002;2023-04-25T08:57:00;3.00;;;1.98;;
36629;SDS011;36256;42.154;23.002;2023-04-25T08:59:28;2.28;;;1.70;;
36629;SDS011;36256;42.154;23.002;2023-04-25T09:01:57;2.08;;;1.83;;
36629;SDS011;36256;42.154;23.002;2023-04-25T09:04:24;2.38;;;1.85;;
36629;SDS011;36256;42.154;23.002;2023-04-25T09:06:51;2.35;;;1.80;;
36629;SDS011;36256;42.154;23.002;2023-04-25T09:09:17;3.10;;;1.60;;
36629;SDS011;36256;42.154;23.002;2023-04-25T09:11:44;1.50;;;1.40;;
36629;SDS011;36256;42.154;23.002;2023-04-25T09:14:14;2.85;;;1.60;;
36629;SDS011;36256;42.154;23.002;2023-04-25T09:19:22;3.97;;;1.58;;
36629;SDS011;36256;42.154;23.002;2023-04-25T09:22:04;5.13;;;1.70;;
36629;SDS011;36256;42.154;23.002;2023-04-25T09:27:10;6.88;;;2.53;;
36629;SDS011;36256;42.154;23.002;2023-04-25T09:29:38;5.25;;;2.17;;
36629;SDS011;36256;42.154;23.002;2023-04-25T09:32:19;8.25;;;3.00;;
36629;SDS011;36256;42.154;23.002;2023-04-25T09:34:57;6.25;;;4.25;;
36629;SDS011;36256;42.154;23.002;2023-04-25T09:37:27;2.95;;;1.70;;
36629;SDS011;36256;42.154;23.002;2023-04-25T09:39:56;3.40;;;2.20;;
36629;SDS011;36256;42.154;23.002;2023-04-25T09:42:31;2.42;;;1.58;;
36629;SDS011;36256;42.154;23.002;2023-04-25T09:45:00;4.95;;;1.52;;
36629;SDS011;36256;42.154;23.002;2023-04-25T09:47:28;2.28;;;1.75;;
36629;SDS011;36256;42.154;23.002;2023-04-25T09:49:55;3.50;;;1.40;;
36629;SDS011;36256;42.154;23.002;2023-04-25T09:52:22;3.03;;;1.60;;
36629;SDS011;36256;42.154;23.002;2023-04-25T09:54:51;4.68;;;1.60;;
36629;SDS011;36256;42.154;23.002;2023-04-25T10:02:12;2.03;;;1.50;;
36629;SDS011;36256;42.154;23.002;2023-04-25T10:04:41;13.65;;;3.30;;
36629;SDS011;36256;42.154;23.002;2023-04-25T10:07:08;1.92;;;1.20;;
36629;SDS011;36256;42.154;23.002;2023-04-25T10:09:36;1.95;;;1.15;;
36629;SDS011;36256;42.154;23.002;2023-04-25T10:12:06;2.22;;;1.30;;
36629;SDS011;36256;42.154;23.002;2023-04-25T10:14:34;2.42;;;1.48;;
36629;SDS011;36256;42.154;23.002;2023-04-25T10:17:01;3.25;;;1.70;;
36629;SDS011;36256;42.154;23.002;2023-04-25T10:19:28;2.72;;;1.45;;
36629;SDS011;36256;42.154;23.002;2023-04-25T10:24:22;1.50;;;1.20;;
36629;SDS011;36256;42.154;23.002;2023-04-25T10:26:49;2.92;;;1.50;;
36629;SDS011;36256;42.154;23.002;2023-04-25T10:29:23;3.38;;;1.65;;
36629;SDS011;36256;42.154;23.002;2023-04-25T10:31:51;2.08;;;1.42;;
36629;SDS011;36256;42.154;23.002;2023-04-25T10:34:18;4.65;;;1.63;;
36629;SDS011;36256;42.154;23.002;2023-04-25T10:36:49;1.20;;;1.05;;
36629;SDS011;36256;42.154;23.002;2023-04-25T10:39:21;1.70;;;1.20;;
36629;SDS011;36256;42.154;23.002;2023-04-25T10:41:56;1.67;;;1.30;;
36629;SDS011;36256;42.154;23.002;2023-04-25T10:44:27;1.45;;;0.93;;
36629;SDS011;36256;42.154;23.002;2023-04-25T10:46:55;0.98;;;0.70;;
36629;SDS011;36256;42.154;23.002;2023-04-25T10:52:17;1.27;;;0.75;;
36629;SDS011;36256;42.154;23.002;2023-04-25T10:54:48;1.15;;;0.75;;
36629;SDS011;36256;42.154;23.002;2023-04-25T10:57:29;1.33;;;0.70;;
36629;SDS011;36256;42.154;23.002;2023-04-25T11:02:42;2.17;;;1.00;;
36629;SDS011;36256;42.154;23.002;2023-04-25T11:08:02;1.33;;;0.68;;
36629;SDS011;36256;42.154;23.002;2023-04-25T11:10:33;2.60;;;1.63;;
36629;SDS011;36256;42.154;23.002;2023-04-25T11:13:03;8.95;;;5.03;;
36629;SDS011;36256;42.154;23.002;2023-04-25T11:15:31;1.88;;;1.08;;
36629;SDS011;36256;42.154;23.002;2023-04-25T11:17:57;2.13;;;0.85;;
36629;SDS011;36256;42.154;23.002;2023-04-25T11:20:25;1.45;;;1.00;;
36629;SDS011;36256;42.154;23.002;2023-04-25T11:22:52;1.38;;;1.00;;
36629;SDS011;36256;42.154;23.002;2023-04-25T11:25:19;3.28;;;1.20;;
36629;SDS011;36256;42.154;23.002;2023-04-25T11:27:52;3.53;;;1.30;;
36629;SDS011;36256;42.154;23.002;2023-04-25T11:30:21;13.65;;;2.50;;
36629;SDS011;36256;42.154;23.002;2023-04-25T11:32:48;10.10;;;2.80;;
36629;SDS011;36256;42.154;23.002;2023-04-25T11:35:15;6.30;;;1.77;;
36629;SDS011;36256;42.154;23.002;2023-04-25T11:37:43;10.55;;;2.47;;
36629;SDS011;36256;42.154;23.002;2023-04-25T11:40:10;5.75;;;2.25;;
36629;SDS011;36256;42.154;23.002;2023-04-25T11:42:38;2.30;;;1.05;;
36629;SDS011;36256;42.154;23.002;2023-04-25T11:45:06;4.28;;;1.85;;
36629;SDS011;36256;42.154;23.002;2023-04-25T11:47:34;5.75;;;2.38;;
36629;SDS011;36256;42.154;23.002;2023-04-25T11:50:04;5.88;;;2.42;;
36629;SDS011;36256;42.154;23.002;2023-04-25T11:52:37;7.43;;;2.38;;
36629;SDS011;36256;42.154;23.002;2023-04-25T11:55:04;10.88;;;2.10;;
36629;SDS011;36256;42.154;23.002;2023-04-25T11:57:35;7.05;;;1.67;;
36629;SDS011;36256;42.154;23.002;2023-04-25T12:02:35;4.95;;;1.58;;
36629;SDS011;36256;42.154;23.002;2023-04-25T12:05:05;4.82;;;1.33;;
36629;SDS011;36256;42.154;23.002;2023-04-25T12:07:54;2.50;;;1.17;;
36629;SDS011;36256;42.154;23.002;2023-04-25T12:10:21;4.65;;;1.30;;
36629;SDS011;36256;42.154;23.002;2023-04-25T12:12:48;2.35;;;1.13;;
36629;SDS011;36256;42.154;23.002;2023-04-25T12:15:15;1.10;;;0.85;;
36629;SDS011;36256;42.154;23.002;2023-04-25T12:17:50;2.15;;;1.10;;
36629;SDS011;36256;42.154;23.002;2023-04-25T12:20:18;2.33;;;1.27;;
36629;SDS011;36256;42.154;23.002;2023-04-25T12:22:47;2.50;;;1.20;;
36629;SDS011;36256;42.154;23.002;2023-04-25T12:28:10;2.33;;;1.10;;
36629;SDS011;36256;42.154;23.002;2023-04-25T12:33:24;1.77;;;1.20;;
36629;SDS011;36256;42.154;23.002;2023-04-25T12:35:52;2.67;;;1.00;;
36629;SDS011;36256;42.154;23.002;2023-04-25T12:38:29;1.75;;;0.90;;
36629;SDS011;36256;42.154;23.002;2023-04-25T12:40:57;1.60;;;1.10;;
36629;SDS011;36256;42.154;23.002;2023-04-25T12:43:24;1.08;;;0.98;;
36629;SDS011;36256;42.154;23.002;2023-04-25T12:45:52;2.75;;;1.10;;
36629;SDS011;36256;42.154;23.002;2023-04-25T12:48:19;3.28;;;1.02;;
36629;SDS011;36256;42.154;23.002;2023-04-25T12:50:46;1.75;;;1.00;;
36629;SDS011;36256;42.154;23.002;2023-04-25T12:53:18;1.67;;;1.10;;
36629;SDS011;36256;42.154;23.002;2023-04-25T12:55:47;1.65;;;1.02;;
36629;SDS011;36256;42.154;23.002;2023-04-25T12:58:14;3.10;;;1.15;;
36629;SDS011;36256;42.154;23.002;2023-04-25T13:00:42;4.65;;;1.23;;
36629;SDS011;36256;42.154;23.002;2023-04-25T13:03:10;5.47;;;1.70;;
36629;SDS011;36256;42.154;23.002;2023-04-25T13:05:37;1.83;;;1.20;;
36629;SDS011;36256;42.154;23.002;2023-04-25T13:08:05;7.45;;;1.92;;
36629;SDS011;36256;42.154;23.002;2023-04-25T13:10:32;4.30;;;2.80;;
36629;SDS011;36256;42.154;23.002;2023-04-25T13:13:00;15.63;;;7.38;;
36629;SDS011;36256;42.154;23.002;2023-04-25T13:15:27;5.65;;;3.00;;
36629;SDS011;36256;42.154;23.002;2023-04-25T13:17:54;8.27;;;4.40;;
36629;SDS011;36256;42.154;23.002;2023-04-25T13:20:22;10.20;;;5.50;;
36629;SDS011;36256;42.154;23.002;2023-04-25T13:22:48;11.68;;;7.18;;
36629;SDS011;36256;42.154;23.002;2023-04-25T13:25:16;9.13;;;4.97;;
36629;SDS011;36256;42.154;23.002;2023-04-25T13:27:42;8.82;;;5.05;;
36629;SDS011;36256;42.154;23.002;2023-04-25T13:30:11;10.75;;;6.57;;
36629;SDS011;36256;42.154;23.002;2023-04-25T13:32:38;22.13;;;8.00;;
36629;SDS011;36256;42.154;23.002;2023-04-25T13:35:06;26.73;;;9.45;;
36629;SDS011;36256;42.154;23.002;2023-04-25T13:37:36;16.05;;;6.13;;
36629;SDS011;36256;42.154;23.002;2023-04-25T13:40:05;11.18;;;5.10;;
36629;SDS011;36256;42.154;23.002;2023-04-25T13:42:35;9.73;;;4.70;;
36629;SDS011;36256;42.154;23.002;2023-04-25T13:45:02;9.38;;;4.47;;
36629;SDS011;36256;42.154;23.002;2023-04-25T13:47:29;13.55;;;8.70;;
36629;SDS011;36256;42.154;23.002;2023-04-25T13:49:56;34.03;;;20.08;;
36629;SDS011;36256;42.154;23.002;2023-04-25T13:52:23;18.75;;;11.73;;
36629;SDS011;36256;42.154;23.002;2023-04-25T13:54:53;6.82;;;4.10;;
36629;SDS011;36256;42.154;23.002;2023-04-25T13:57:20;9.80;;;5.90;;
36629;SDS011;36256;42.154;23.002;2023-04-25T13:59:46;3.42;;;2.63;;
36629;SDS011;36256;42.154;23.002;2023-04-25T14:02:13;2.72;;;2.00;;
36629;SDS011;36256;42.154;23.002;2023-04-25T14:04:40;3.47;;;1.83;;
36629;SDS011;36256;42.154;23.002;2023-04-25T14:09:34;4.38;;;2.20;;
36629;SDS011;36256;42.154;23.002;2023-04-25T14:12:01;3.72;;;2.25;;
36629;SDS011;36256;42.154;23.002;2023-04-25T14:14:28;5.25;;;2.40;;
36629;SDS011;36256;42.154;23.002;2023-04-25T14:16:55;3.38;;;1.98;;
36629;SDS011;36256;42.154;23.002;2023-04-25T14:19:23;2.80;;;1.33;;
36629;SDS011;36256;42.154;23.002;2023-04-25T14:21:50;3.03;;;2.28;;
36629;SDS011;36256;42.154;23.002;2023-04-25T14:24:17;6.57;;;3.73;;
36629;SDS011;36256;42.154;23.002;2023-04-25T14:26:44;7.13;;;5.13;;
36629;SDS011;36256;42.154;23.002;2023-04-25T14:29:10;8.00;;;3.65;;
36629;SDS011;36256;42.154;23.002;2023-04-25T14:31:40;6.25;;;4.18;;
36629;SDS011;36256;42.154;23.002;2023-04-25T14:34:07;5.72;;;2.63;;
36629;SDS011;36256;42.154;23.002;2023-04-25T14:39:02;1.63;;;1.40;;
36629;SDS011;36256;42.154;23.002;2023-04-25T14:43:55;3.05;;;1.90;;
36629;SDS011;36256;42.154;23.002;2023-04-25T14:46:23;5.53;;;1.70;;
36629;SDS011;36256;42.154;23.002;2023-04-25T14:48:50;3.10;;;2.10;;
36629;SDS011;36256;42.154;23.002;2023-04-25T14:51:17;5.47;;;2.45;;
36629;SDS011;36256;42.154;23.002;2023-04-25T14:53:43;8.57;;;2.63;;
36629;SDS011;36256;42.154;23.002;2023-04-25T14:56:10;6.82;;;3.20;;
36629;SDS011;36256;42.154;23.002;2023-04-25T14:58:37;4.78;;;2.70;;
36629;SDS011;36256;42.154;23.002;2023-04-25T15:01:06;6.55;;;2.72;;
36629;SDS011;36256;42.154;23.002;2023-04-25T15:03:35;3.92;;;2.50;;
36629;SDS011;36256;42.154;23.002;2023-04-25T15:06:02;4.75;;;2.60;;
36629;SDS011;36256;42.154;23.002;2023-04-25T15:08:29;2.53;;;2.28;;
36629;SDS011;36256;42.154;23.002;2023-04-25T15:10:56;3.08;;;2.65;;
36629;SDS011;36256;42.154;23.002;2023-04-25T15:13:22;3.65;;;2.15;;
36629;SDS011;36256;42.154;23.002;2023-04-25T15:15:49;5.53;;;2.70;;
36629;SDS011;36256;42.154;23.002;2023-04-25T15:18:20;4.95;;;2.25;;
36629;SDS011;36256;42.154;23.002;2023-04-25T15:20:50;2.25;;;1.80;;
36629;SDS011;36256;42.154;23.002;2023-04-25T15:23:18;3.03;;;2.17;;
36629;SDS011;36256;42.154;23.002;2023-04-25T15:25:46;5.13;;;3.80;;
36629;SDS011;36256;42.154;23.002;2023-04-25T15:28:13;5.40;;;3.53;;
36629;SDS011;36256;42.154;23.002;2023-04-25T15:30:43;3.72;;;2.83;;
36629;SDS011;36256;42.154;23.002;2023-04-25T15:33:10;4.47;;;2.60;;